Time;durP1;ratioP1;P1;durP2;ratioP2;P2;SDS_P1;SDS_P2;PMS_P1;PMS_P2;Temp;Humidity;BMP_temperature;BMP_pressure;BME280_temperature;BME280_humidity;BME280_pressure;Samples;Min_cycle;Max_cycle;Signal;HPM_P1;HPM_P2
2022/07/12 00:00:14;;;;;;;2.53;1.52;;;22.20;99.90;;;;;;5034939;28;20207;-72
2022/07/12 00:02:41;;;;;;;1.50;1.40;;;22.30;99.90;;;;;;5029825;28;20802;-73
2022/07/12 00:05:08;;;;;;;1.60;1.50;;;22.30;99.90;;;;;;5034803;28;20203;-73
2022/07/12 00:07:35;;;;;;;3.13;1.50;;;22.30;99.90;;;;;;5028257;28;20216;-74
2022/07/12 00:10:03;;;;;;;1.75;1.65;;;22.30;99.90;;;;;;5028980;28;20826;-74
2022/07/12 00:12:30;;;;;;;1.80;1.70;;;22.20;99.90;;;;;;5029924;28;21488;-74
2022/07/12 00:14:57;;;;;;;2.20;2.00;;;22.20;99.90;;;;;;5033180;28;20685;-72
2022/07/12 00:17:25;;;;;;;1.70;1.60;;;22.20;99.90;;;;;;5034169;28;20226;-74
2022/07/12 00:19:52;;;;;;;1.77;1.67;;;22.10;99.90;;;;;;5030942;28;20192;-74
2022/07/12 00:22:19;;;;;;;1.70;1.52;;;22.00;99.90;;;;;;5040100;28;20212;-74
2022/07/12 00:24:46;;;;;;;1.40;1.30;;;22.00;99.90;;;;;;5040228;28;20207;-73
2022/07/12 00:27:13;;;;;;;2.33;1.90;;;22.00;99.90;;;;;;5039149;28;20227;-73
2022/07/12 00:29:41;;;;;;;1.65;1.55;;;22.10;99.90;;;;;;5027352;28;20195;-72
2022/07/12 00:32:08;;;;;;;1.77;1.67;;;22.00;99.90;;;;;;5031740;28;20223;-72
2022/07/12 00:34:37;;;;;;;1.58;1.48;;;22.00;99.90;;;;;;5032487;28;20224;-74
2022/07/12 00:37:04;;;;;;;1.92;1.83;;;22.10;99.90;;;;;;5032615;28;20233;-73
2022/07/12 00:39:31;;;;;;;1.55;1.23;;;22.10;99.90;;;;;;5026897;28;20239;-72
2022/07/12 00:41:58;;;;;;;1.40;1.30;;;22.10;99.90;;;;;;5032539;28;20196;-73
2022/07/12 00:44:26;;;;;;;1.48;1.35;;;22.10;99.90;;;;;;5030445;28;20215;-74
2022/07/12 00:46:57;;;;;;;1.70;1.60;;;22.10;99.90;;;;;;5026750;28;20315;-75
2022/07/12 00:49:25;;;;;;;1.55;1.45;;;22.20;99.90;;;;;;5025110;28;20191;-74
2022/07/12 00:51:54;;;;;;;1.50;1.40;;;22.20;99.90;;;;;;5029150;28;20203;-75
2022/07/12 00:54:21;;;;;;;1.60;1.50;;;22.10;99.90;;;;;;5028045;28;20204;-76
2022/07/12 00:56:48;;;;;;;3.10;1.65;;;22.10;99.90;;;;;;5031162;28;20223;-74
2022/07/12 00:59:16;;;;;;;1.73;1.48;;;22.10;99.90;;;;;;5027295;28;20213;-75
2022/07/12 01:01:43;;;;;;;2.13;1.98;;;22.10;99.90;;;;;;5029467;28;20207;-75
2022/07/12 01:04:10;;;;;;;2.13;1.50;;;22.10;99.90;;;;;;5028855;28;20199;-74
2022/07/12 01:06:38;;;;;;;1.88;1.77;;;22.00;99.90;;;;;;5030685;28;20216;-76
2022/07/12 01:09:07;;;;;;;1.63;1.52;;;22.00;99.90;;;;;;5031242;28;20223;-72
2022/07/12 01:11:36;;;;;;;1.83;1.65;;;22.00;99.90;;;;;;5023387;28;20279;-76
2022/07/12 01:14:03;;;;;;;1.85;1.65;;;22.00;99.90;;;;;;5035362;28;20215;-73
2022/07/12 01:16:32;;;;;;;1.50;1.40;;;21.90;99.90;;;;;;5031459;28;20289;-75
2022/07/12 01:19:00;;;;;;;1.88;1.77;;;21.90;99.90;;;;;;5026939;28;20234;-76
2022/07/12 01:21:32;;;;;;;1.52;1.42;;;21.80;99.90;;;;;;5029099;28;20207;-76
2022/07/12 01:24:01;;;;;;;2.22;1.60;;;21.70;99.90;;;;;;5027706;28;20720;-76
2022/07/12 01:26:29;;;;;;;1.60;1.50;;;21.60;99.90;;;;;;5027056;28;20250;-76
2022/07/12 01:28:57;;;;;;;1.95;1.70;;;21.60;99.90;;;;;;5028184;28;20234;-72
2022/07/12 01:31:24;;;;;;;1.92;1.70;;;21.60;99.90;;;;;;5026192;28;20204;-75
2022/07/12 01:33:51;;;;;;;1.70;1.60;;;21.60;99.90;;;;;;5027332;28;20773;-75
2022/07/12 01:36:18;;;;;;;1.60;1.50;;;21.60;99.90;;;;;;5025653;28;20310;-71
2022/07/12 01:38:45;;;;;;;1.48;1.38;;;21.70;99.90;;;;;;5032283;28;20211;-72
2022/07/12 01:41:14;;;;;;;2.25;1.92;;;21.70;99.90;;;;;;5030041;28;20199;-72
2022/07/12 01:43:41;;;;;;;2.00;1.88;;;21.80;99.90;;;;;;5029560;28;20249;-75
2022/07/12 01:46:08;;;;;;;1.35;1.30;;;21.80;99.90;;;;;;5035832;28;20195;-75
2022/07/12 01:48:35;;;;;;;1.50;1.40;;;21.90;99.90;;;;;;5032967;28;20740;-72
2022/07/12 01:51:03;;;;;;;1.55;1.40;;;21.90;99.90;;;;;;5025487;28;20203;-73
2022/07/12 01:53:30;;;;;;;1.45;1.35;;;21.90;99.90;;;;;;5026984;28;20681;-72
2022/07/12 01:55:57;;;;;;;1.50;1.40;;;21.90;99.90;;;;;;5030143;28;20749;-73
2022/07/12 01:58:35;;;;;;;1.50;1.40;;;21.90;99.90;;;;;;5025903;28;20648;-72
2022/07/12 02:01:02;;;;;;;1.23;1.13;;;22.00;99.90;;;;;;5031079;28;20200;-72
2022/07/12 02:03:30;;;;;;;1.40;1.27;;;22.00;99.90;;;;;;5038213;28;20224;-73
2022/07/12 02:05:57;;;;;;;1.50;1.40;;;21.90;99.90;;;;;;5039661;28;20203;-74
2022/07/12 02:08:24;;;;;;;1.60;1.40;;;21.90;99.90;;;;;;5032734;28;20221;-72
2022/07/12 02:10:51;;;;;;;1.55;1.45;;;21.90;99.90;;;;;;5031713;28;20206;-71
2022/07/12 02:13:18;;;;;;;1.55;1.45;;;21.90;99.90;;;;;;5030848;28;20226;-73
2022/07/12 02:15:47;;;;;;;1.73;1.42;;;21.90;99.90;;;;;;5028686;28;20203;-72
2022/07/12 02:18:14;;;;;;;1.35;1.25;;;21.90;99.90;;;;;;5028955;28;20227;-73
2022/07/12 02:20:41;;;;;;;1.70;1.50;;;21.90;99.90;;;;;;5028212;28;20212;-71
2022/07/12 02:23:08;;;;;;;1.48;1.38;;;21.80;99.90;;;;;;5027915;28;20215;-73
2022/07/12 02:25:35;;;;;;;1.50;1.40;;;21.80;99.90;;;;;;5032342;28;20211;-75
2022/07/12 02:28:02;;;;;;;2.05;1.50;;;21.80;99.90;;;;;;5028122;28;20601;-75
2022/07/12 02:30:29;;;;;;;1.42;1.33;;;21.70;99.90;;;;;;5032102;28;20230;-75
2022/07/12 02:32:58;;;;;;;1.85;1.50;;;21.70;99.90;;;;;;5028624;28;20222;-73
2022/07/12 02:35:25;;;;;;;1.70;1.60;;;21.60;99.90;;;;;;5032049;28;20200;-73
2022/07/12 02:37:52;;;;;;;1.38;1.27;;;21.60;99.90;;;;;;5030683;28;20228;-72
2022/07/12 02:43:05;;;;;;;1.52;1.40;;;21.50;99.90;;;;;;5028087;28;20217;-73
2022/07/12 02:45:32;;;;;;;1.88;1.70;;;21.50;99.90;;;;;;5030413;28;20200;-73
2022/07/12 02:48:00;;;;;;;1.77;1.45;;;21.40;99.90;;;;;;5032637;28;20770;-72
2022/07/12 02:50:27;;;;;;;1.90;1.80;;;21.50;99.90;;;;;;5030044;28;20697;-72
2022/07/12 02:52:54;;;;;;;2.10;1.90;;;21.60;99.90;;;;;;5031237;28;20215;-72
2022/07/12 02:55:21;;;;;;;1.77;1.60;;;21.60;99.90;;;;;;5028634;28;20212;-71
2022/07/12 02:57:49;;;;;;;3.05;1.80;;;21.60;99.90;;;;;;5044741;28;20890;-72
2022/07/12 03:00:16;;;;;;;1.95;1.70;;;21.70;99.90;;;;;;5029846;28;20204;-72
2022/07/12 03:02:43;;;;;;;2.05;1.50;;;21.70;99.90;;;;;;5034626;28;20215;-73
2022/07/12 03:05:11;;;;;;;2.75;1.80;;;21.70;99.90;;;;;;5029490;28;20195;-72
2022/07/12 03:07:39;;;;;;;1.77;1.67;;;21.60;99.90;;;;;;5026661;28;20219;-71
2022/07/12 03:10:06;;;;;;;1.65;1.55;;;21.60;99.90;;;;;;5030385;28;20206;-73
2022/07/12 03:12:34;;;;;;;1.80;1.70;;;21.60;99.90;;;;;;5026960;28;20219;-71
2022/07/12 03:15:02;;;;;;;2.47;1.70;;;21.60;99.90;;;;;;5030423;28;20200;-70
2022/07/12 03:17:29;;;;;;;1.83;1.70;;;21.60;99.90;;;;;;5031001;28;20215;-72
2022/07/12 03:19:56;;;;;;;1.52;1.42;;;21.60;99.90;;;;;;5031141;28;20658;-71
2022/07/12 03:22:24;;;;;;;2.50;1.67;;;21.60;99.90;;;;;;5029822;28;20226;-73
2022/07/12 03:24:52;;;;;;;2.53;2.20;;;21.60;99.90;;;;;;5031299;28;20199;-71
2022/07/12 03:27:19;;;;;;;2.45;2.10;;;21.50;99.90;;;;;;5026848;28;20231;-71
2022/07/12 03:29:46;;;;;;;2.00;1.88;;;21.50;99.90;;;;;;5026850;28;20211;-70
2022/07/12 03:32:13;;;;;;;2.08;1.90;;;21.50;99.90;;;;;;5029282;28;20215;-71
2022/07/12 03:34:40;;;;;;;2.40;1.67;;;21.50;99.90;;;;;;5027539;28;20203;-71
2022/07/12 03:37:07;;;;;;;1.80;1.70;;;21.50;99.90;;;;;;5027888;28;20223;-71
2022/07/12 03:39:36;;;;;;;1.70;1.60;;;21.50;99.90;;;;;;5028263;28;20203;-71
2022/07/12 03:42:03;;;;;;;1.75;1.40;;;21.50;99.90;;;;;;5025217;28;20226;-73
2022/07/12 03:44:30;;;;;;;1.38;1.27;;;21.60;99.90;;;;;;5027984;28;20202;-72
2022/07/12 03:46:58;;;;;;;1.48;1.38;;;21.60;99.90;;;;;;5029244;28;20231;-73
2022/07/12 03:49:25;;;;;;;1.52;1.40;;;21.60;99.90;;;;;;5039150;28;20207;-72
2022/07/12 03:51:52;;;;;;;1.58;1.48;;;21.70;99.90;;;;;;5027076;28;20202;-72
2022/07/12 03:54:19;;;;;;;1.50;1.40;;;21.70;99.90;;;;;;5026782;28;20208;-73
2022/07/12 03:59:33;;;;;;;1.85;1.73;;;21.70;99.90;;;;;;4999880;28;20652;-74
2022/07/12 04:02:01;;;;;;;1.80;1.70;;;21.70;99.90;;;;;;5005444;28;20254;-74
2022/07/12 04:04:28;;;;;;;1.60;1.50;;;21.70;99.90;;;;;;5002705;28;20200;-74
2022/07/12 04:06:55;;;;;;;1.70;1.45;;;21.70;99.90;;;;;;5004615;28;20204;-74
2022/07/12 04:09:22;;;;;;;1.85;1.63;;;21.70;99.90;;;;;;4982998;28;20201;-71
2022/07/12 04:11:51;;;;;;;1.70;1.60;;;21.70;99.90;;;;;;4986718;28;20268;-73
2022/07/12 04:14:18;;;;;;;1.50;1.40;;;21.70;99.90;;;;;;4986550;28;20231;-74
2022/07/12 04:16:45;;;;;;;1.85;1.40;;;21.80;99.90;;;;;;4987006;28;20208;-73
2022/07/12 04:19:12;;;;;;;1.77;1.67;;;21.70;99.90;;;;;;4987549;28;20220;-75
2022/07/12 04:21:39;;;;;;;1.55;1.40;;;21.70;99.90;;;;;;4987149;28;20201;-74
2022/07/12 04:24:07;;;;;;;1.80;1.70;;;21.70;99.90;;;;;;4984997;28;20257;-74
2022/07/12 04:26:34;;;;;;;1.83;1.73;;;21.70;99.90;;;;;;4987087;28;20193;-73
2022/07/12 04:29:03;;;;;;;2.70;1.90;;;21.60;99.90;;;;;;4983836;28;20224;-73
2022/07/12 04:31:30;;;;;;;2.55;2.10;;;21.40;99.90;;;;;;4983983;28;20208;-74
2022/07/12 04:33:57;;;;;;;1.85;1.75;;;21.30;99.90;;;;;;4983488;28;20221;-74
2022/07/12 04:36:24;;;;;;;1.98;1.70;;;21.30;99.90;;;;;;4986197;28;20201;-75
2022/07/12 04:38:51;;;;;;;2.60;1.90;;;21.30;99.90;;;;;;4986738;28;20232;-74
2022/07/12 04:41:18;;;;;;;1.50;1.40;;;21.40;99.90;;;;;;4987783;28;20196;-74
2022/07/12 04:43:45;;;;;;;1.90;1.80;;;21.50;99.90;;;;;;4983074;28;20614;-74
2022/07/12 04:46:13;;;;;;;1.92;1.80;;;21.50;99.90;;;;;;4985568;28;20849;-74
2022/07/12 04:48:40;;;;;;;1.75;1.65;;;21.40;99.90;;;;;;4984525;28;20217;-74
2022/07/12 04:51:07;;;;;;;1.52;1.42;;;21.30;99.90;;;;;;4982525;28;20630;-73
2022/07/12 04:53:34;;;;;;;1.73;1.50;;;21.20;99.90;;;;;;4988402;28;20233;-75
2022/07/12 04:56:02;;;;;;;1.83;1.73;;;21.10;99.90;;;;;;4988348;28;20202;-73
2022/07/12 04:58:29;;;;;;;1.80;1.70;;;21.10;99.90;;;;;;4984567;28;20216;-74
2022/07/12 05:00:56;;;;;;;1.95;1.77;;;21.20;99.90;;;;;;4986157;28;20675;-74
2022/07/12 05:03:26;;;;;;;2.00;1.75;;;21.20;99.90;;;;;;4983273;28;20220;-75
2022/07/12 05:05:54;;;;;;;1.70;1.60;;;21.20;99.90;;;;;;4985837;28;20257;-75
2022/07/12 05:08:22;;;;;;;2.55;1.60;;;21.20;99.90;;;;;;4987103;28;20725;-74
2022/07/12 05:10:49;;;;;;;1.40;1.30;;;21.30;99.90;;;;;;4986029;28;20619;-74
2022/07/12 05:13:16;;;;;;;1.73;1.33;;;21.40;99.90;;;;;;4984690;28;20319;-74
2022/07/12 05:15:43;;;;;;;1.50;1.40;;;21.40;99.90;;;;;;4987486;28;20201;-73
2022/07/12 05:18:10;;;;;;;1.38;1.27;;;21.40;99.90;;;;;;4984867;28;20220;-74
2022/07/12 05:20:39;;;;;;;3.08;1.23;;;21.50;99.90;;;;;;4986819;28;20209;-74
2022/07/12 05:23:06;;;;;;;1.60;1.50;;;21.60;99.90;;;;;;4989123;28;20220;-74
2022/07/12 05:25:33;;;;;;;1.42;1.35;;;21.80;99.90;;;;;;4983436;28;20192;-74
2022/07/12 05:28:00;;;;;;;1.50;1.20;;;22.00;99.90;;;;;;4988621;28;20213;-73
2022/07/12 05:30:27;;;;;;;1.33;1.23;;;22.20;99.90;;;;;;4984363;28;20252;-74
2022/07/12 05:32:54;;;;;;;1.52;1.42;;;22.30;99.90;;;;;;4986272;28;20257;-74
2022/07/12 05:35:21;;;;;;;1.80;1.63;;;22.40;99.90;;;;;;4983211;28;20631;-72
2022/07/12 05:37:49;;;;;;;3.92;1.83;;;22.30;99.90;;;;;;4989777;28;20221;-73
2022/07/12 05:40:18;;;;;;;1.95;1.60;;;22.40;99.90;;;;;;4991474;28;20205;-73
2022/07/12 05:42:46;;;;;;;1.85;1.73;;;22.30;99.90;;;;;;4989828;28;20422;-73
2022/07/12 05:45:13;;;;;;;1.95;1.70;;;22.30;99.90;;;;;;4989145;28;20578;-74
2022/07/12 05:47:40;;;;;;;1.77;1.40;;;22.40;99.90;;;;;;4988498;28;20224;-73
2022/07/12 05:50:08;;;;;;;2.42;1.67;;;22.50;99.90;;;;;;4989564;28;20614;-71
2022/07/12 05:55:21;;;;;;;1.50;1.40;;;23.10;99.90;;;;;;4992444;28;20199;-73
2022/07/12 05:57:48;;;;;;;1.35;1.25;;;23.60;99.90;;;;;;4991127;28;20217;-74
2022/07/12 06:00:16;;;;;;;1.63;1.52;;;23.80;99.90;;;;;;4991150;28;20211;-73
2022/07/12 06:02:43;;;;;;;1.95;1.70;;;23.90;99.90;;;;;;4990088;28;20241;-73
2022/07/12 06:05:10;;;;;;;1.80;1.40;;;23.70;99.90;;;;;;4989370;28;20200;-74
2022/07/12 06:07:37;;;;;;;1.90;1.20;;;23.70;99.90;;;;;;4988359;28;20228;-72
2022/07/12 06:10:05;;;;;;;2.03;1.23;;;23.70;99.90;;;;;;4988322;28;20205;-74
2022/07/12 06:12:33;;;;;;;1.63;1.20;;;23.60;99.90;;;;;;4989794;28;20221;-73
2022/07/12 06:15:02;;;;;;;1.50;1.15;;;23.70;99.90;;;;;;4986908;28;20201;-74
2022/07/12 06:17:29;;;;;;;2.28;1.40;;;23.80;99.90;;;;;;4990640;28;20255;-74
2022/07/12 06:19:56;;;;;;;1.80;1.42;;;23.90;99.90;;;;;;4988361;28;20659;-74
2022/07/12 06:22:23;;;;;;;2.28;1.40;;;23.80;99.90;;;;;;4991515;28;20224;-74
2022/07/12 06:24:50;;;;;;;1.90;1.30;;;23.80;99.90;;;;;;4989309;28;20224;-74
2022/07/12 06:27:17;;;;;;;1.58;1.25;;;23.90;99.90;;;;;;4985129;28;20239;-72
2022/07/12 06:29:47;;;;;;;2.50;1.33;;;24.00;99.90;;;;;;4990906;28;20189;-75
2022/07/12 06:32:16;;;;;;;3.25;1.35;;;24.20;99.90;;;;;;4985387;28;20300;-74
2022/07/12 06:34:43;;;;;;;1.40;1.30;;;24.40;99.90;;;;;;4988173;28;20259;-73
2022/07/12 06:37:12;;;;;;;1.50;1.40;;;24.50;99.90;;;;;;4987418;28;20229;-72
2022/07/12 06:39:39;;;;;;;4.07;1.15;;;24.60;99.90;;;;;;4985000;28;20596;-73
2022/07/12 06:42:07;;;;;;;1.67;1.50;;;24.70;99.90;;;;;;4989077;28;20315;-73
2022/07/12 06:44:35;;;;;;;1.40;1.27;;;24.60;99.90;;;;;;4988144;28;20643;-74
2022/07/12 06:47:04;;;;;;;1.30;1.20;;;24.40;99.90;;;;;;4977969;28;20239;-75
2022/07/12 06:49:31;;;;;;;2.65;1.40;;;24.30;99.90;;;;;;4986959;28;20197;-71
2022/07/12 06:51:58;;;;;;;1.10;1.10;;;24.40;99.90;;;;;;4981291;28;20201;-73
2022/07/12 06:54:25;;;;;;;1.30;1.20;;;24.50;99.90;;;;;;4984798;28;20201;-73
2022/07/12 06:56:53;;;;;;;2.53;1.20;;;24.50;99.90;;;;;;4985524;28;20255;-73
2022/07/12 06:59:20;;;;;;;1.20;1.00;;;24.30;99.90;;;;;;4984956;28;20217;-73
2022/07/12 07:01:47;;;;;;;1.27;1.05;;;24.10;99.90;;;;;;4982855;28;20212;-72
2022/07/12 07:04:15;;;;;;;1.50;1.23;;;23.90;99.90;;;;;;4983709;28;20208;-73
2022/07/12 07:06:42;;;;;;;1.48;1.38;;;23.80;99.90;;;;;;4984406;28;20204;-74
2022/07/12 07:09:10;;;;;;;2.25;1.00;;;23.70;99.90;;;;;;4985457;28;20197;-74
2022/07/12 07:11:37;;;;;;;1.20;1.10;;;23.70;99.90;;;;;;4986350;28;20236;-74
2022/07/12 07:14:04;;;;;;;1.20;1.10;;;23.80;99.90;;;;;;4983038;28;20224;-74
2022/07/12 07:16:31;;;;;;;1.58;1.20;;;23.70;99.90;;;;;;4991311;28;20203;-73
2022/07/12 07:18:58;;;;;;;1.90;1.13;;;23.90;99.90;;;;;;4985916;28;20224;-74
2022/07/12 07:21:27;;;;;;;2.40;1.55;;;24.40;99.90;;;;;;4987270;28;20201;-74
2022/07/12 07:23:54;;;;;;;2.00;1.20;;;24.80;99.90;;;;;;4981755;28;20586;-74
2022/07/12 07:26:22;;;;;;;1.52;1.30;;;25.00;99.90;;;;;;4984204;28;20479;-71
2022/07/12 07:31:35;;;;;;;1.60;1.50;;;25.40;99.90;;;;;;4986042;28;20204;-73
2022/07/12 07:34:02;;;;;;;2.45;1.42;;;25.60;99.90;;;;;;4987444;28;20320;-71
2022/07/12 07:36:31;;;;;;;1.60;1.50;;;25.70;99.90;;;;;;4987436;28;20686;-72
2022/07/12 07:39:00;;;;;;;3.08;1.48;;;25.80;99.90;;;;;;4986187;28;20221;-72
2022/07/12 07:41:27;;;;;;;1.70;1.42;;;25.80;99.90;;;;;;4986956;28;20267;-73
2022/07/12 07:43:54;;;;;;;1.77;1.50;;;25.90;99.90;;;;;;4984042;28;20225;-74
2022/07/12 07:46:21;;;;;;;2.58;1.52;;;26.00;99.90;;;;;;4985056;28;20201;-74
2022/07/12 07:48:48;;;;;;;1.52;1.42;;;26.00;99.90;;;;;;4985700;28;20221;-74
2022/07/12 07:51:15;;;;;;;1.77;1.58;;;26.20;99.90;;;;;;4985919;28;20209;-72
2022/07/12 07:53:44;;;;;;;1.73;1.40;;;26.20;99.90;;;;;;4985546;28;20229;-72
2022/07/12 07:56:11;;;;;;;2.78;1.90;;;26.30;99.90;;;;;;4985756;28;20194;-74
2022/07/12 07:58:38;;;;;;;2.25;1.80;;;26.40;99.90;;;;;;4986090;28;20228;-75
2022/07/12 08:01:05;;;;;;;2.17;1.65;;;26.40;99.90;;;;;;4985110;28;20703;-74
2022/07/12 08:03:32;;;;;;;2.17;1.77;;;26.50;99.90;;;;;;4986538;28;20224;-75
2022/07/12 08:06:00;;;;;;;2.22;2.03;;;26.50;99.90;;;;;;4986757;28;20203;-75
2022/07/12 08:08:28;;;;;;;2.97;1.98;;;26.70;99.90;;;;;;4983247;28;20298;-74
2022/07/12 08:10:56;;;;;;;2.80;1.60;;;26.70;99.90;;;;;;4983228;28;20662;-73
2022/07/12 08:13:24;;;;;;;2.83;1.80;;;26.70;99.90;;;;;;4983017;28;20290;-73
2022/07/12 08:15:51;;;;;;;2.08;1.50;;;26.70;99.90;;;;;;4987138;28;20306;-73
2022/07/12 08:18:18;;;;;;;4.82;1.88;;;26.80;99.90;;;;;;4983946;28;20213;-73
2022/07/12 08:20:45;;;;;;;1.48;1.38;;;26.90;99.90;;;;;;4985406;28;20196;-74
2022/07/12 08:23:13;;;;;;;2.50;1.60;;;27.00;99.90;;;;;;4983120;28;20216;-72
2022/07/12 08:25:41;;;;;;;1.88;1.60;;;27.00;99.90;;;;;;4972245;28;20201;-74
2022/07/12 08:28:09;;;;;;;3.28;2.00;;;27.20;99.90;;;;;;4980619;28;20235;-72
2022/07/12 08:30:37;;;;;;;2.25;1.88;;;27.30;99.90;;;;;;4980920;28;20204;-73
2022/07/12 08:33:04;;;;;;;1.73;1.63;;;27.30;99.90;;;;;;4988594;28;20224;-74
2022/07/12 08:35:31;;;;;;;2.67;1.60;;;27.20;99.90;;;;;;4986006;28;20319;-73
2022/07/12 08:37:58;;;;;;;3.22;2.13;;;27.30;99.90;;;;;;4982767;28;20816;-73
2022/07/12 08:40:25;;;;;;;2.42;1.58;;;27.40;99.90;;;;;;4982057;28;20633;-74
2022/07/12 08:42:52;;;;;;;2.67;2.00;;;27.50;99.90;;;;;;4985967;28;20559;-74
2022/07/12 08:45:20;;;;;;;2.38;2.20;;;27.70;99.90;;;;;;4981973;28;20193;-71
2022/07/12 08:47:47;;;;;;;2.10;1.90;;;27.60;99.90;;;;;;4983178;28;20225;-74
2022/07/12 08:50:20;;;;;;;2.13;1.90;;;27.50;99.90;;;;;;4982683;28;20204;-71
2022/07/12 08:52:48;;;;;;;2.58;1.92;;;27.50;99.90;;;;;;4983530;28;20224;-74
2022/07/12 08:55:20;;;;;;;2.00;1.90;;;27.80;99.90;;;;;;4986104;28;20215;-74
2022/07/12 08:57:48;;;;;;;2.53;2.13;;;27.90;99.90;;;;;;4986468;28;20220;-75
2022/07/12 09:00:15;;;;;;;2.53;2.30;;;27.90;99.90;;;;;;4983288;28;20231;-72
2022/07/12 09:02:49;;;;;;;2.42;1.80;;;27.90;99.90;;;;;;4981021;28;20721;-73
2022/07/12 09:05:18;;;;;;;2.25;1.98;;;27.80;99.90;;;;;;4982144;28;20212;-75
2022/07/12 09:07:45;;;;;;;3.65;2.45;;;28.00;99.90;;;;;;4979423;28;20290;-74
2022/07/12 09:10:13;;;;;;;3.03;2.25;;;28.20;99.90;;;;;;4981441;28;20197;-73
2022/07/12 09:12:41;;;;;;;2.20;2.00;;;28.20;99.90;;;;;;4982909;28;20224;-73
2022/07/12 09:15:19;;;;;;;2.83;2.13;;;28.50;99.90;;;;;;4982706;28;20225;-73
2022/07/12 09:18:01;;;;;;;2.03;1.92;;;28.60;99.90;;;;;;4982431;28;20351;-72
2022/07/12 09:20:29;;;;;;;2.25;2.00;;;28.70;99.90;;;;;;4982250;28;20454;-75
2022/07/12 09:22:58;;;;;;;2.75;1.67;;;28.70;99.90;;;;;;4982071;28;20229;-74
2022/07/12 09:25:26;;;;;;;2.53;2.33;;;29.00;99.90;;;;;;4985191;28;20207;-73
2022/07/12 09:27:55;;;;;;;2.22;1.92;;;29.00;99.90;;;;;;4979966;28;20308;-73
2022/07/12 09:30:23;;;;;;;2.35;1.95;;;29.00;99.90;;;;;;4980486;28;20278;-74
2022/07/12 09:38:22;;;;;;;2.40;2.20;;;29.20;99.90;;;;;;4974101;28;20306;-73
2022/07/12 09:40:50;;;;;;;2.00;1.90;;;29.30;99.90;;;;;;4983673;28;20213;-74
2022/07/12 09:43:18;;;;;;;3.05;2.40;;;29.30;99.90;;;;;;4983441;28;20248;-73
2022/07/12 09:45:48;;;;;;;7.78;2.53;;;29.30;99.90;;;;;;4983728;28;20641;-73
2022/07/12 09:48:17;;;;;;;3.47;2.40;;;29.40;99.90;;;;;;4986481;28;20631;-74
2022/07/12 09:50:48;;;;;;;7.15;2.67;;;29.40;99.90;;;;;;4982114;28;20567;-75
2022/07/12 09:53:22;;;;;;;3.50;2.50;;;29.20;99.90;;;;;;4984224;28;20240;-73
2022/07/12 09:55:52;;;;;;;3.85;2.45;;;29.40;99.90;;;;;;4977106;28;20286;-75
2022/07/12 09:58:24;;;;;;;4.75;2.45;;;29.50;99.90;;;;;;4984063;28;20258;-74
2022/07/12 10:00:53;;;;;;;2.33;2.13;;;29.60;99.90;;;;;;5033216;22;20977;-75
2022/07/12 10:03:23;;;;;;;2.53;2.33;;;29.50;99.90;;;;;;5018715;28;20334;-75
2022/07/12 10:05:53;;;;;;;4.38;2.33;;;29.50;99.90;;;;;;5024626;28;20286;-74
2022/07/12 10:08:22;;;;;;;2.53;2.30;;;29.60;99.90;;;;;;5024197;28;20249;-73
2022/07/12 10:10:50;;;;;;;2.60;2.25;;;29.70;99.90;;;;;;5033664;28;20631;-75
2022/07/12 10:13:19;;;;;;;2.65;2.08;;;29.80;99.90;;;;;;5033701;28;20243;-75
2022/07/12 10:15:48;;;;;;;5.15;2.50;;;29.70;99.90;;;;;;5029110;28;20245;-75
2022/07/12 10:18:20;;;;;;;4.00;2.40;;;29.70;99.90;;;;;;5029819;28;21952;-75
2022/07/12 10:20:48;;;;;;;3.80;2.70;;;29.70;99.90;;;;;;5027013;28;20223;-75
2022/07/12 10:23:36;;;;;;;5.50;2.60;;;29.60;99.90;;;;;;5036728;28;20422;-74
2022/07/12 10:26:25;;;;;;;4.00;2.40;;;29.60;99.90;;;;;;5033646;28;20210;-77
2022/07/12 10:29:02;;;;;;;3.42;2.28;;;29.60;99.90;;;;;;5034602;28;20709;-76
2022/07/12 10:31:33;;;;;;;3.38;2.50;;;29.50;99.90;;;;;;5033344;28;20199;-75
2022/07/12 10:34:21;;;;;;;3.13;2.38;;;29.70;99.90;;;;;;5034140;28;20227;-75
2022/07/12 10:37:11;;;;;;;3.85;2.15;;;29.80;99.90;;;;;;5034018;28;20279;-74
2022/07/12 10:39:40;;;;;;;2.88;2.25;;;29.90;99.90;;;;;;5028271;28;20254;-76
2022/07/12 10:42:17;;;;;;;2.53;2.28;;;30.10;99.90;;;;;;5033228;28;20331;-75
2022/07/12 10:44:47;;;;;;;4.13;2.20;;;30.10;99.90;;;;;;5029345;28;20196;-74
2022/07/12 10:47:17;;;;;;;6.20;2.42;;;29.90;99.90;;;;;;5017690;28;20302;-76
2022/07/12 10:49:49;;;;;;;3.88;2.30;;;29.90;99.90;;;;;;5027809;28;20220;-75
2022/07/12 10:52:27;;;;;;;2.60;2.10;;;29.70;99.90;;;;;;5029854;28;20979;-75
2022/07/12 10:55:20;;;;;;;4.32;2.42;;;30.00;99.90;;;;;;5030646;28;20882;-73
2022/07/12 10:57:54;;;;;;;4.60;2.65;;;29.70;99.90;;;;;;5025738;28;20215;-74
2022/07/12 11:00:22;;;;;;;2.20;2.00;;;29.40;99.90;;;;;;5028413;28;20260;-74
2022/07/12 11:02:50;;;;;;;2.03;1.83;;;29.70;99.90;;;;;;5023324;28;20705;-75
2022/07/12 11:05:17;;;;;;;2.75;2.00;;;30.20;99.90;;;;;;5023070;28;20199;-76
2022/07/12 11:07:45;;;;;;;2.88;2.10;;;30.50;99.90;;;;;;5030614;28;20215;-76
2022/07/12 11:10:14;;;;;;;2.58;2.20;;;30.70;99.90;;;;;;5025160;28;20219;-74
2022/07/12 11:12:45;;;;;;;1.77;1.63;;;30.80;99.90;;;;;;5021444;28;20648;-76
2022/07/12 11:15:13;;;;;;;2.25;2.00;;;30.80;99.90;;;;;;5032262;28;20195;-77
2022/07/12 11:17:40;;;;;;;4.95;2.10;;;30.90;99.90;;;;;;5022721;28;20220;-77
2022/07/12 11:20:10;;;;;;;2.10;1.85;;;30.50;99.90;;;;;;5026139;28;20274;-76
2022/07/12 11:22:39;;;;;;;3.20;2.20;;;30.10;99.90;;;;;;5027349;28;20246;-76
2022/07/12 11:25:09;;;;;;;2.05;1.80;;;29.60;99.90;;;;;;5031809;28;20559;-77
2022/07/12 11:27:37;;;;;;;2.28;1.98;;;29.40;99.90;;;;;;5023569;28;20866;-74
2022/07/12 11:30:08;;;;;;;2.47;2.10;;;29.00;99.90;;;;;;5025654;28;20212;-76
2022/07/12 11:32:39;;;;;;;2.22;2.00;;;28.70;99.90;;;;;;5030470;28;20310;-76
2022/07/12 11:35:19;;;;;;;2.20;1.98;;;28.70;99.90;;;;;;5029541;28;20195;-78
2022/07/12 11:37:53;;;;;;;3.20;1.90;;;28.60;99.90;;;;;;5023865;28;20428;-77
2022/07/12 11:40:25;;;;;;;1.88;1.77;;;28.60;99.90;;;;;;5027557;28;20225;-76
2022/07/12 11:42:54;;;;;;;1.90;1.67;;;28.60;99.90;;;;;;5027508;28;20223;-75
2022/07/12 11:45:23;;;;;;;2.15;1.42;;;29.00;99.90;;;;;;5023644;28;20663;-75
2022/07/12 11:47:50;;;;;;;2.05;1.90;;;29.60;99.90;;;;;;5028596;28;20920;-73
2022/07/12 11:50:19;;;;;;;6.15;2.20;;;30.10;99.90;;;;;;5030915;28;20215;-74
2022/07/12 11:52:47;;;;;;;2.25;1.88;;;30.40;99.90;;;;;;5024463;28;20654;-75
2022/07/12 11:55:14;;;;;;;2.20;2.00;;;30.70;99.90;;;;;;5029625;28;20199;-75
2022/07/12 11:57:41;;;;;;;2.42;1.95;;;30.80;99.90;;;;;;5029547;28;20231;-75
2022/07/12 12:00:19;;;;;;;3.10;2.25;;;31.00;99.90;;;;;;5027819;28;20231;-77
2022/07/12 12:02:52;;;;;;;2.35;2.00;;;31.10;99.90;;;;;;5019412;28;20230;-74
2022/07/12 12:05:20;;;;;;;3.78;1.80;;;31.00;99.90;;;;;;5029260;28;20731;-74
2022/07/12 12:07:48;;;;;;;1.98;1.77;;;31.00;99.90;;;;;;5023146;28;20226;-76
2022/07/12 12:10:16;;;;;;;2.33;1.80;;;31.10;99.90;;;;;;5025781;28;20211;-77
2022/07/12 12:12:45;;;;;;;2.22;1.90;;;31.20;99.90;;;;;;5020441;28;20228;-77
2022/07/12 12:15:13;;;;;;;1.77;1.52;;;31.20;99.90;;;;;;5030338;28;20211;-77
2022/07/12 12:17:47;;;;;;;2.92;1.83;;;31.20;99.90;;;;;;5031659;28;20219;-76
2022/07/12 12:20:17;;;;;;;2.53;2.13;;;31.20;99.90;;;;;;5014037;28;20219;-75
2022/07/12 12:22:46;;;;;;;2.90;2.10;;;31.20;99.90;;;;;;5019577;28;20224;-76
2022/07/12 12:25:14;;;;;;;5.82;2.13;;;31.20;99.90;;;;;;5025487;28;20223;-74
2022/07/12 12:27:42;;;;;;;3.40;2.15;;;31.20;99.90;;;;;;5023748;28;20325;-77
2022/07/12 12:30:10;;;;;;;2.30;1.90;;;31.30;99.90;;;;;;5027407;28;20224;-77
2022/07/12 12:32:51;;;;;;;3.40;1.80;;;31.30;99.90;;;;;;5028018;28;20857;-78
2022/07/12 12:35:21;;;;;;;1.80;1.70;;;31.50;99.90;;;;;;5031956;28;20199;-77
2022/07/12 12:37:53;;;;;;;3.08;1.88;;;31.50;99.90;;;;;;5027599;28;20715;-77
2022/07/12 12:40:21;;;;;;;2.17;1.90;;;31.60;99.90;;;;;;5024364;28;20334;-76
2022/07/12 12:42:49;;;;;;;1.70;1.60;;;31.70;99.90;;;;;;5020519;28;20226;-78
2022/07/12 12:45:20;;;;;;;2.58;1.85;;;31.80;99.90;;;;;;5021645;28;20214;-76
2022/07/12 12:47:56;;;;;;;1.70;1.60;;;31.80;99.90;;;;;;5024337;28;20254;-77
2022/07/12 12:50:43;;;;;;;2.42;1.77;;;32.00;99.10;;;;;;5027945;28;20215;-77
2022/07/12 12:53:16;;;;;;;2.20;1.70;;;32.10;98.40;;;;;;5029011;28;20224;-75
2022/07/12 12:55:44;;;;;;;2.58;1.80;;;32.00;99.90;;;;;;5029122;28;20211;-77
2022/07/12 12:58:12;;;;;;;2.47;1.88;;;31.60;99.90;;;;;;5027503;28;20234;-77
2022/07/12 13:00:41;;;;;;;2.05;1.65;;;31.10;99.90;;;;;;5014493;28;20223;-77
2022/07/12 13:03:11;;;;;;;1.90;1.80;;;30.70;99.80;;;;;;5020177;28;20235;-76
2022/07/12 13:05:39;;;;;;;1.90;1.70;;;30.30;99.60;;;;;;5026110;28;20206;-79
2022/07/12 13:08:08;;;;;;;1.70;1.60;;;30.00;99.70;;;;;;5026093;28;20223;-78
2022/07/12 13:10:36;;;;;;;2.25;1.40;;;30.50;98.80;;;;;;5027184;28;20218;-77